createdAt,value
2022-09-17T00:01:05.078Z,9.70
2022-09-17T00:03:33.793Z,9.90
2022-09-17T00:06:02.000Z,9.80
2022-09-17T00:08:31.147Z,9.90
2022-09-17T00:10:58.884Z,10.00
2022-09-17T00:13:26.707Z,9.80
2022-09-17T00:15:54.571Z,9.80
2022-09-17T00:18:22.406Z,9.70
2022-09-17T00:20:50.180Z,9.80
2022-09-17T00:23:17.939Z,9.80
2022-09-17T00:25:47.130Z,9.80
2022-09-17T00:28:15.299Z,9.80
2022-09-17T00:30:43.373Z,9.80
2022-09-17T00:33:12.502Z,9.80
2022-09-17T00:35:40.256Z,9.60
2022-09-17T00:38:08.057Z,9.80
2022-09-17T00:40:36.092Z,9.60
2022-09-17T00:43:05.332Z,9.60
2022-09-17T00:45:33.288Z,9.70
2022-09-17T00:48:01.813Z,9.70
2022-09-17T00:50:31.296Z,9.70
2022-09-17T00:53:01.399Z,9.80
2022-09-17T00:55:31.395Z,9.70
2022-09-17T00:58:01.026Z,9.60
2022-09-17T01:00:30.846Z,9.60
2022-09-17T01:02:58.900Z,9.70
2022-09-17T01:05:31.669Z,9.60
2022-09-17T01:08:05.527Z,9.70
2022-09-17T01:10:42.663Z,9.70
2022-09-17T01:13:16.827Z,9.70
2022-09-17T01:15:48.182Z,9.70
2022-09-17T01:18:27.637Z,9.70
2022-09-17T01:21:22.022Z,9.70
2022-09-17T01:24:03.994Z,9.70
2022-09-17T01:26:44.217Z,9.80
2022-09-17T01:29:14.956Z,9.70
2022-09-17T01:31:44.593Z,9.60
2022-09-17T01:34:16.669Z,9.50
2022-09-17T01:36:49.967Z,9.60
2022-09-17T01:39:22.914Z,9.40
2022-09-17T01:41:54.037Z,9.60
2022-09-17T01:44:24.866Z,9.70
2022-09-17T01:46:55.873Z,9.70
2022-09-17T01:49:26.580Z,9.60
2022-09-17T01:51:54.913Z,9.70
2022-09-17T01:54:25.422Z,9.80
2022-09-17T01:56:56.330Z,9.80
2022-09-17T01:59:27.146Z,9.80
2022-09-17T02:01:59.135Z,9.80
2022-09-17T02:04:28.966Z,9.70
2022-09-17T02:06:58.191Z,9.60
2022-09-17T02:09:28.067Z,9.50
2022-09-17T02:11:58.862Z,9.60
2022-09-17T02:14:28.488Z,9.50
2022-09-17T02:17:01.006Z,9.50
2022-09-17T02:19:30.091Z,9.50
2022-09-17T02:22:01.013Z,9.50
2022-09-17T02:24:32.157Z,9.70
2022-09-17T02:27:03.128Z,9.70
2022-09-17T02:29:35.125Z,9.80
2022-09-17T02:32:04.379Z,9.80
2022-09-17T02:34:32.376Z,9.80
2022-09-17T02:37:00.340Z,9.70
2022-09-17T02:39:28.289Z,9.80
2022-09-17T02:42:04.894Z,9.80
2022-09-17T02:44:36.052Z,9.80
2022-09-17T02:47:22.433Z,9.80
2022-09-17T02:50:00.409Z,9.80
2022-09-17T02:52:33.344Z,9.60
2022-09-17T02:55:03.535Z,9.50
2022-09-17T02:57:33.398Z,9.40
2022-09-17T03:00:05.613Z,9.40
2022-09-17T03:02:36.663Z,9.40
2022-09-17T03:05:05.124Z,9.30
2022-09-17T03:07:32.889Z,9.30
2022-09-17T03:10:00.694Z,9.40
2022-09-17T03:12:28.513Z,9.40
2022-09-17T03:14:56.311Z,9.40
2022-09-17T03:17:24.204Z,9.30
2022-09-17T03:19:53.306Z,9.30
2022-09-17T03:22:21.674Z,9.60
2022-09-17T03:24:49.514Z,9.60
2022-09-17T03:27:17.397Z,9.30
2022-09-17T03:29:45.203Z,9.30
2022-09-17T03:32:12.961Z,9.20
2022-09-17T03:34:40.748Z,9.20
2022-09-17T03:37:09.910Z,9.20
2022-09-17T03:39:37.690Z,9.30
2022-09-17T03:42:05.852Z,9.10
2022-09-17T03:44:33.778Z,9.30
2022-09-17T03:47:01.623Z,9.20
2022-09-17T03:49:29.422Z,9.30
2022-09-17T03:51:57.211Z,9.20
2022-09-17T03:54:26.477Z,9.20
2022-09-17T03:56:54.583Z,9.20
2022-09-17T03:59:23.031Z,9.20
2022-09-17T04:01:50.882Z,9.30
2022-09-17T04:04:18.769Z,9.30
2022-09-17T04:06:46.547Z,9.30
2022-09-17T04:09:14.315Z,9.20
2022-09-17T04:11:43.424Z,9.20
2022-09-17T04:14:11.215Z,9.10
2022-09-17T04:16:38.989Z,9.20
2022-09-17T04:19:06.906Z,9.10
2022-09-17T04:21:34.692Z,9.10
2022-09-17T04:24:02.872Z,9.00
2022-09-17T04:26:30.649Z,9.10
2022-09-17T04:28:59.799Z,9.00
2022-09-17T04:31:28.057Z,9.00
2022-09-17T04:33:56.159Z,9.10
2022-09-17T04:36:23.986Z,9.00
2022-09-17T04:38:51.789Z,9.10
2022-09-17T04:41:19.560Z,9.20
2022-09-17T04:43:47.717Z,9.20
2022-09-17T04:46:17.896Z,9.20
2022-09-17T04:48:45.742Z,9.40
2022-09-17T04:51:13.561Z,9.30
2022-09-17T04:53:41.348Z,9.20
2022-09-17T04:56:09.164Z,9.20
2022-09-17T04:58:36.958Z,9.10
2022-09-17T05:01:04.870Z,9.20
2022-09-17T05:03:33.995Z,9.30
2022-09-17T05:06:02.006Z,9.20
2022-09-17T05:08:29.959Z,9.10
2022-09-17T05:10:57.845Z,9.30
2022-09-17T05:13:25.658Z,9.30
2022-09-17T05:15:55.122Z,9.10
2022-09-17T05:18:22.903Z,9.20
2022-09-17T05:20:52.023Z,9.30
2022-09-17T05:23:20.471Z,9.30
2022-09-17T05:25:48.273Z,9.30
2022-09-17T05:28:16.041Z,9.20
2022-09-17T05:30:43.840Z,9.20
2022-09-17T05:33:11.637Z,9.20
2022-09-17T05:35:39.487Z,9.20
2022-09-17T05:38:08.667Z,9.10
2022-09-17T05:40:37.633Z,9.20
2022-09-17T05:43:06.539Z,9.20
2022-09-17T05:45:34.693Z,9.10
2022-09-17T05:48:03.130Z,9.10
2022-09-17T05:50:31.189Z,9.30
2022-09-17T05:52:59.059Z,9.30
2022-09-17T05:55:28.865Z,9.30
2022-09-17T05:57:56.723Z,9.30
2022-09-17T06:00:24.552Z,9.20
2022-09-17T06:02:56.091Z,9.20
2022-09-17T06:05:24.067Z,9.20
2022-09-17T06:07:51.981Z,9.20
2022-09-17T06:10:21.704Z,9.20
2022-09-17T06:12:56.131Z,9.20
2022-09-17T06:15:23.934Z,9.20
2022-09-17T06:17:51.745Z,9.20
2022-09-17T06:20:19.768Z,9.30
2022-09-17T06:22:47.670Z,9.30
2022-09-17T06:25:15.510Z,10.00
2022-09-17T06:27:43.256Z,9.70
2022-09-17T06:30:13.148Z,9.50
2022-09-17T06:32:40.948Z,9.50
2022-09-17T06:35:10.522Z,9.10
2022-09-17T06:37:40.289Z,9.10
2022-09-17T06:40:09.694Z,9.00
2022-09-17T06:42:37.573Z,9.00
2022-09-17T06:45:10.152Z,9.00
2022-09-17T06:47:41.280Z,8.90
2022-09-17T06:50:09.571Z,8.90
2022-09-17T06:52:38.634Z,8.90
2022-09-17T06:55:07.144Z,9.40
2022-09-17T06:57:34.947Z,9.70
2022-09-17T07:00:03.432Z,9.80
2022-09-17T07:02:31.972Z,9.60
2022-09-17T07:05:01.173Z,9.50
2022-09-17T07:07:29.125Z,9.20
2022-09-17T07:09:56.924Z,9.20
2022-09-17T07:12:24.696Z,9.10
2022-09-17T07:14:52.768Z,9.10
2022-09-17T07:17:20.537Z,9.20
2022-09-17T07:19:48.317Z,9.10
2022-09-17T07:22:17.491Z,9.10
2022-09-17T07:24:45.287Z,9.00
2022-09-17T07:27:13.746Z,9.20
2022-09-17T07:29:41.930Z,9.10
2022-09-17T07:32:09.750Z,9.20
2022-09-17T07:34:37.830Z,9.30
2022-09-17T07:37:05.650Z,9.20
2022-09-17T07:39:34.914Z,9.10
2022-09-17T07:42:04.333Z,9.10
2022-09-17T07:44:32.250Z,9.00
2022-09-17T07:47:00.549Z,9.10
2022-09-17T07:49:28.376Z,9.10
2022-09-17T07:51:56.164Z,9.20
2022-09-17T07:54:23.992Z,9.60
2022-09-17T07:56:53.141Z,10.00
2022-09-17T07:59:21.603Z,9.60
2022-09-17T08:01:49.554Z,9.30
2022-09-17T08:04:17.495Z,9.30
2022-09-17T08:06:48.395Z,9.40
2022-09-17T08:09:16.516Z,9.60
2022-09-17T08:11:55.498Z,9.70
2022-09-17T08:14:29.350Z,9.70
2022-09-17T08:16:57.861Z,9.80
2022-09-17T08:19:25.765Z,9.70
2022-09-17T08:21:53.767Z,9.80
2022-09-17T08:24:21.529Z,10.00
2022-09-17T08:26:49.315Z,10.00
2022-09-17T08:29:17.128Z,10.00
2022-09-17T08:31:46.399Z,10.30
2022-09-17T08:34:14.176Z,10.30
2022-09-17T08:36:41.936Z,10.10
2022-09-17T08:39:12.038Z,10.00
2022-09-17T08:41:48.972Z,10.00
2022-09-17T08:44:22.427Z,9.90
2022-09-17T08:46:52.327Z,9.70
2022-09-17T08:49:26.656Z,9.60
2022-09-17T08:52:13.778Z,9.70
2022-09-17T08:54:43.454Z,9.80
2022-09-17T08:57:16.138Z,9.90
2022-09-17T08:59:44.523Z,9.70
2022-09-17T09:02:19.927Z,9.80
2022-09-17T09:04:58.724Z,10.00
2022-09-17T09:07:27.987Z,10.10
2022-09-17T09:10:04.013Z,10.10
2022-09-17T09:12:33.416Z,9.80
2022-09-17T09:15:02.098Z,9.50
2022-09-17T09:17:37.525Z,9.60
2022-09-17T09:20:06.501Z,9.60
2022-09-17T09:22:46.493Z,9.90
2022-09-17T09:25:23.139Z,9.80
2022-09-17T09:28:00.732Z,10.20
2022-09-17T09:30:29.258Z,10.10
2022-09-17T09:32:59.480Z,10.10
2022-09-17T09:35:28.380Z,10.00
2022-09-17T09:37:59.010Z,10.10
2022-09-17T09:40:33.039Z,10.10
2022-09-17T09:43:02.339Z,10.40
2022-09-17T09:45:39.053Z,10.40
2022-09-17T09:48:10.180Z,10.50
2022-09-17T09:51:05.253Z,10.80
2022-09-17T09:53:33.464Z,10.60
2022-09-17T09:56:11.933Z,10.70
2022-09-17T09:58:40.561Z,10.40
2022-09-17T10:01:12.538Z,10.50
2022-09-17T10:03:42.709Z,10.60
2022-09-17T10:06:11.025Z,10.40
2022-09-17T10:08:40.055Z,10.30
2022-09-17T10:11:17.647Z,10.50
2022-09-17T10:13:45.788Z,10.30
2022-09-17T10:16:25.218Z,10.50
2022-09-17T10:19:14.139Z,10.40
2022-09-17T10:21:42.332Z,10.20
2022-09-17T10:24:16.355Z,10.30
2022-09-17T10:26:44.177Z,10.40
2022-09-17T10:29:13.552Z,10.60
2022-09-17T10:31:48.102Z,10.70
2022-09-17T10:34:21.585Z,10.70
2022-09-17T10:36:49.576Z,11.00
2022-09-17T10:39:28.228Z,10.80
2022-09-17T10:41:56.289Z,10.90
2022-09-17T10:44:24.892Z,10.90
2022-09-17T10:46:52.868Z,10.90
2022-09-17T10:49:29.335Z,10.70
2022-09-17T10:52:09.969Z,10.60
2022-09-17T10:54:50.514Z,10.60
2022-09-17T10:57:21.389Z,10.60
2022-09-17T11:00:00.227Z,10.60
2022-09-17T11:03:03.725Z,10.80
2022-09-17T11:05:41.159Z,10.80
2022-09-17T11:08:12.156Z,10.50
2022-09-17T11:10:43.414Z,10.50
2022-09-17T11:13:16.882Z,10.40
2022-09-17T11:15:55.117Z,10.10
2022-09-17T11:18:36.832Z,9.80
2022-09-17T11:21:25.660Z,9.80
2022-09-17T11:24:09.592Z,9.70
2022-09-17T11:26:38.956Z,9.80
2022-09-17T11:29:18.061Z,10.10
2022-09-17T11:31:49.938Z,10.00
2022-09-17T11:34:29.915Z,10.20
2022-09-17T11:37:01.591Z,10.30
2022-09-17T11:39:34.241Z,10.40
2022-09-17T11:42:03.469Z,10.50
2022-09-17T11:44:32.723Z,10.40
2022-09-17T11:47:03.916Z,10.30
2022-09-17T11:49:34.666Z,10.50
2022-09-17T11:52:06.609Z,10.30
2022-09-17T11:54:37.576Z,10.40
2022-09-17T11:57:09.734Z,10.30
2022-09-17T11:59:40.259Z,10.20
2022-09-17T12:02:16.623Z,10.30
2022-09-17T12:04:45.591Z,10.10
2022-09-17T12:07:26.587Z,9.90
2022-09-17T12:09:56.603Z,10.10
2022-09-17T12:12:48.317Z,10.20
2022-09-17T12:15:15.655Z,10.20
2022-09-17T12:17:44.337Z,10.20
2022-09-17T12:20:18.897Z,10.30
2022-09-17T12:22:48.116Z,10.20
2022-09-17T12:25:16.157Z,10.20
2022-09-17T12:27:47.049Z,10.10
2022-09-17T12:30:17.292Z,10.20
2022-09-17T12:32:58.305Z,10.40
2022-09-17T12:36:03.398Z,10.40
2022-09-17T12:38:49.061Z,10.40
2022-09-17T12:41:19.431Z,11.10
2022-09-17T12:44:03.670Z,11.00
2022-09-17T12:46:50.193Z,10.80
2022-09-17T12:49:39.773Z,10.80
2022-09-17T12:52:09.006Z,10.70
2022-09-17T12:54:46.135Z,10.60
2022-09-17T12:57:20.047Z,10.50
2022-09-17T12:59:50.215Z,10.30
2022-09-17T13:02:20.702Z,10.10
2022-09-17T13:05:25.154Z,9.80
2022-09-17T13:08:12.306Z,9.60
2022-09-17T13:10:58.379Z,9.30
2022-09-17T13:13:35.574Z,9.30
2022-09-17T13:16:13.278Z,9.50
2022-09-17T13:18:53.889Z,9.60
2022-09-17T13:21:36.938Z,9.70
2022-09-17T13:24:05.798Z,9.70
2022-09-17T13:26:37.436Z,9.80
2022-09-17T13:29:09.878Z,9.70
2022-09-17T13:31:50.922Z,10.10
2022-09-17T13:34:29.694Z,10.10
2022-09-17T13:36:57.700Z,10.10
2022-09-17T13:39:42.731Z,9.90
2022-09-17T13:42:15.515Z,9.80
2022-09-17T13:44:45.495Z,9.40
2022-09-17T13:47:22.287Z,9.40
2022-09-17T13:49:52.084Z,9.20
2022-09-17T13:52:46.806Z,9.20
2022-09-17T13:55:34.183Z,9.00
2022-09-17T13:58:04.401Z,9.10
2022-09-17T14:00:52.594Z,9.20
2022-09-17T14:03:56.789Z,9.30
2022-09-17T14:06:54.888Z,9.20
2022-09-17T14:09:37.276Z,9.10
2022-09-17T14:12:36.332Z,9.00
2022-09-17T14:15:10.292Z,8.70
2022-09-17T14:17:50.787Z,9.60
2022-09-17T14:20:20.532Z,9.50
2022-09-17T14:22:56.078Z,9.10
2022-09-17T14:25:26.277Z,9.00
2022-09-17T14:27:57.003Z,8.90
2022-09-17T14:30:27.483Z,8.80
2022-09-17T14:33:03.827Z,8.90
2022-09-17T14:35:35.056Z,8.90
2022-09-17T14:38:04.928Z,8.50
2022-09-17T14:40:34.136Z,8.40
2022-09-17T14:43:01.972Z,8.20
2022-09-17T14:45:32.800Z,8.40
2022-09-17T14:48:20.392Z,8.30
2022-09-17T14:50:48.203Z,8.40
2022-09-17T14:53:17.047Z,8.40
2022-09-17T14:55:44.963Z,8.50
2022-09-17T14:58:27.048Z,8.40
2022-09-17T15:00:56.288Z,8.70
2022-09-17T15:03:24.350Z,8.70
2022-09-17T15:05:52.233Z,8.90
2022-09-17T15:08:21.569Z,8.80
2022-09-17T15:10:50.602Z,8.90
2022-09-17T15:13:19.436Z,9.10
2022-09-17T15:15:56.788Z,9.40
2022-09-17T15:18:31.265Z,9.80
2022-09-17T15:20:59.237Z,9.60
2022-09-17T15:23:27.531Z,9.60
2022-09-17T15:25:56.979Z,9.50
2022-09-17T15:28:29.501Z,9.90
2022-09-17T15:30:58.676Z,10.00
2022-09-17T15:33:26.513Z,9.90
2022-09-17T15:36:02.309Z,9.80
2022-09-17T15:38:32.822Z,9.90
2022-09-17T15:41:27.661Z,9.80
2022-09-17T15:44:13.303Z,9.80
2022-09-17T15:46:44.962Z,9.60
2022-09-17T15:49:29.365Z,9.60
2022-09-17T15:51:57.197Z,9.60
2022-09-17T15:54:30.404Z,9.70
2022-09-17T15:56:59.983Z,9.50
2022-09-17T15:59:29.080Z,9.40
2022-09-17T16:01:59.300Z,9.40
2022-09-17T16:04:31.462Z,9.40
2022-09-17T16:07:01.155Z,9.20
2022-09-17T16:09:43.778Z,9.50
2022-09-17T16:12:13.269Z,9.50
2022-09-17T16:14:45.045Z,9.10
2022-09-17T16:17:29.252Z,9.10
2022-09-17T16:19:57.330Z,9.00
2022-09-17T16:22:26.282Z,8.90
2022-09-17T16:24:54.104Z,8.80
2022-09-17T16:27:23.203Z,8.90
2022-09-17T16:29:51.205Z,8.80
2022-09-17T16:32:18.980Z,9.00
2022-09-17T16:34:48.110Z,8.90
2022-09-17T16:37:15.901Z,9.00
2022-09-17T16:39:43.797Z,9.10
2022-09-17T16:42:11.551Z,8.90
2022-09-17T16:44:39.457Z,8.90
2022-09-17T16:47:07.354Z,8.50
2022-09-17T16:49:35.152Z,8.20
2022-09-17T16:52:04.390Z,8.00
2022-09-17T16:54:32.179Z,8.00
2022-09-17T16:57:01.080Z,8.10
2022-09-17T16:59:28.911Z,7.80
2022-09-17T17:01:56.704Z,8.00
2022-09-17T17:04:24.500Z,7.80
2022-09-17T17:06:52.282Z,7.90
2022-09-17T17:09:21.493Z,8.00
2022-09-17T17:11:49.807Z,8.20
2022-09-17T17:14:18.428Z,8.20
2022-09-17T17:16:46.303Z,8.10
2022-09-17T17:19:14.308Z,8.00
2022-09-17T17:21:47.034Z,7.90
2022-09-17T17:24:15.302Z,8.00
2022-09-17T17:26:44.685Z,7.90
2022-09-17T17:29:12.502Z,7.70
2022-09-17T17:31:40.477Z,7.70
2022-09-17T17:34:08.580Z,7.60
2022-09-17T17:36:36.390Z,7.60
2022-09-17T17:39:04.344Z,7.60
2022-09-17T17:41:32.315Z,7.40
2022-09-17T17:44:01.603Z,7.40
2022-09-17T17:46:29.432Z,7.20
2022-09-17T17:48:58.118Z,7.20
2022-09-17T17:51:27.170Z,7.30
2022-09-17T17:53:54.947Z,7.10
2022-09-17T17:56:23.468Z,7.40
2022-09-17T17:58:55.010Z,7.10
2022-09-17T18:01:25.135Z,7.20
2022-09-17T18:03:57.038Z,7.40
2022-09-17T18:06:24.887Z,7.30
2022-09-17T18:08:52.655Z,7.20
2022-09-17T18:11:20.704Z,7.30
2022-09-17T18:13:51.807Z,7.40
2022-09-17T18:16:19.687Z,7.40
2022-09-17T18:18:48.899Z,7.20
2022-09-17T18:21:17.780Z,7.20
2022-09-17T18:23:46.095Z,7.10
2022-09-17T18:26:14.997Z,7.30
2022-09-17T18:28:42.847Z,7.40
2022-09-17T18:31:11.702Z,7.50
2022-09-17T18:33:39.590Z,7.50
2022-09-17T18:36:08.863Z,7.50
2022-09-17T18:38:39.509Z,7.30
2022-09-17T18:41:08.482Z,7.50
2022-09-17T18:43:36.308Z,7.40
2022-09-17T18:46:04.657Z,7.40
2022-09-17T18:48:36.319Z,7.40
2022-09-17T18:51:05.256Z,7.40
2022-09-17T18:53:36.107Z,7.40
2022-09-17T18:56:05.460Z,7.40
2022-09-17T18:58:33.281Z,7.50
2022-09-17T19:01:01.103Z,7.60
2022-09-17T19:03:32.059Z,7.60
2022-09-17T19:06:00.822Z,7.70
2022-09-17T19:08:28.747Z,7.70
2022-09-17T19:10:58.613Z,7.70
2022-09-17T19:13:26.660Z,7.70
2022-09-17T19:15:59.108Z,7.80
2022-09-17T19:18:27.017Z,7.90
2022-09-17T19:21:00.255Z,7.90
2022-09-17T19:23:28.195Z,7.80
2022-09-17T19:25:57.437Z,7.90
2022-09-17T19:28:25.232Z,8.00
2022-09-17T19:30:53.225Z,7.90
2022-09-17T19:33:21.030Z,7.80
2022-09-17T19:35:50.598Z,7.80
2022-09-17T19:38:18.513Z,7.90
2022-09-17T19:40:56.954Z,7.90
2022-09-17T19:43:24.928Z,7.90
2022-09-17T19:45:52.716Z,8.00
2022-09-17T19:48:25.068Z,8.10
2022-09-17T19:50:53.183Z,8.10
2022-09-17T19:53:21.067Z,8.20
2022-09-17T19:55:49.160Z,8.20
2022-09-17T19:58:18.271Z,8.20
2022-09-17T20:00:46.222Z,8.10
2022-09-17T20:03:14.312Z,8.10
2022-09-17T20:05:42.196Z,8.00
2022-09-17T20:08:09.958Z,8.10
2022-09-17T20:10:38.415Z,8.10
2022-09-17T20:13:07.091Z,8.10
2022-09-17T20:15:36.778Z,8.20
2022-09-17T20:18:04.698Z,8.10
2022-09-17T20:20:32.459Z,8.20
2022-09-17T20:23:00.245Z,8.20
2022-09-17T20:25:28.953Z,8.40
2022-09-17T20:27:56.737Z,8.20
2022-09-17T20:30:24.510Z,8.30
2022-09-17T20:32:55.442Z,8.60
2022-09-17T20:35:23.252Z,8.90
2022-09-17T20:40:38.897Z,8.50
2022-09-17T20:43:06.703Z,8.50
2022-09-17T20:45:34.510Z,8.40
2022-09-17T20:48:03.977Z,8.30
2022-09-17T20:50:31.736Z,8.30
2022-09-17T20:52:59.514Z,8.30
2022-09-17T20:55:27.307Z,8.30
2022-09-17T20:57:55.103Z,8.30
2022-09-17T21:00:26.351Z,8.30
2022-09-17T21:02:56.140Z,8.30
2022-09-17T21:05:25.239Z,8.20
2022-09-17T21:07:53.011Z,8.10
2022-09-17T21:10:21.012Z,8.00
2022-09-17T21:12:48.939Z,8.00
2022-09-17T21:15:16.902Z,8.10
2022-09-17T21:17:45.376Z,8.10
2022-09-17T21:20:13.136Z,8.00
2022-09-17T21:22:43.148Z,8.10
2022-09-17T21:25:10.953Z,8.00
2022-09-17T21:27:38.804Z,8.10
2022-09-17T21:30:09.617Z,8.10
2022-09-17T21:32:38.278Z,8.00
2022-09-17T21:35:06.511Z,7.90
2022-09-17T21:37:36.455Z,7.90
2022-09-17T21:40:08.032Z,7.90
2022-09-17T21:42:38.652Z,8.00
2022-09-17T21:45:07.371Z,7.90
2022-09-17T21:47:35.390Z,7.90
2022-09-17T21:50:03.238Z,7.90
2022-09-17T21:52:31.035Z,8.00
2022-09-17T21:54:58.820Z,7.90
2022-09-17T21:57:28.762Z,7.90
2022-09-17T21:59:56.559Z,8.00
2022-09-17T22:02:24.469Z,7.90
2022-09-17T22:04:52.308Z,8.00
2022-09-17T22:07:23.113Z,8.00
2022-09-17T22:09:51.235Z,8.00
2022-09-17T22:12:19.003Z,8.10
2022-09-17T22:14:48.216Z,8.00
2022-09-17T22:17:17.270Z,8.00
2022-09-17T22:19:45.052Z,8.10
2022-09-17T22:22:12.856Z,8.10
2022-09-17T22:24:44.322Z,8.10
2022-09-17T22:27:12.132Z,8.00
2022-09-17T22:29:39.911Z,8.00
2022-09-17T22:32:09.123Z,8.10
2022-09-17T22:34:36.912Z,7.80
2022-09-17T22:37:06.238Z,7.70
2022-09-17T22:39:34.054Z,7.60
2022-09-17T22:42:01.841Z,7.50
2022-09-17T22:44:29.607Z,7.50
2022-09-17T22:46:57.432Z,7.60
2022-09-17T22:49:26.677Z,7.70
2022-09-17T22:51:54.469Z,7.70
2022-09-17T22:54:22.238Z,7.60
2022-09-17T22:56:50.133Z,7.60
2022-09-17T22:59:19.017Z,7.60
2022-09-17T23:01:47.021Z,7.60
2022-09-17T23:04:14.850Z,7.50
2022-09-17T23:06:43.996Z,7.40
2022-09-17T23:09:12.969Z,7.40
2022-09-17T23:11:40.915Z,7.60
2022-09-17T23:14:09.947Z,7.60
2022-09-17T23:16:38.845Z,7.50
2022-09-17T23:19:06.578Z,7.50
2022-09-17T23:21:34.373Z,7.50
2022-09-17T23:24:04.214Z,7.60
2022-09-17T23:26:31.966Z,7.70
2022-09-17T23:29:04.381Z,7.50
2022-09-17T23:31:34.706Z,7.40
2022-09-17T23:34:02.783Z,7.30
2022-09-17T23:36:31.642Z,7.30
2022-09-17T23:38:59.823Z,7.30
2022-09-17T23:41:29.872Z,7.40
2022-09-17T23:43:58.272Z,7.30
2022-09-17T23:46:26.976Z,7.30
2022-09-17T23:48:54.927Z,7.50
2022-09-17T23:51:22.861Z,7.20
2022-09-17T23:53:50.780Z,7.20
2022-09-17T23:56:19.798Z,7.30
2022-09-17T23:58:49.399Z,7.40
